Time;durP1;ratioP1;P1;durP2;ratioP2;P2;SDS_P1;SDS_P2;PMS_P1;PMS_P2;Temp;Humidity;BMP_temperature;BMP_pressure;BME280_temperature;BME280_humidity;BME280_pressure;Samples;Min_cycle;Max_cycle;Signal;HPM_P1;HPM_P2
2023/08/22 00:01:11;;;;;;;10.68;7.93;;;;;;;22.05;65.93;99522.00;6257747;22;20003;-88
2023/08/22 00:03:36;;;;;;;12.93;7.90;;;;;;;22.08;66.11;99524.84;6259459;22;19999;-89
2023/08/22 00:06:02;;;;;;;10.68;8.32;;;;;;;21.74;66.46;99517.84;6258131;22;20007;-89
2023/08/22 00:08:27;;;;;;;13.93;8.48;;;;;;;21.87;65.64;99521.38;6283598;22;20086;-89
2023/08/22 00:10:57;;;;;;;11.05;8.38;;;;;;;21.92;66.36;99532.94;6283210;22;20045;-88
2023/08/22 00:13:23;;;;;;;10.88;8.30;;;;;;;21.91;66.09;99541.50;6284142;22;20003;-88
2023/08/22 00:15:48;;;;;;;12.02;8.27;;;;;;;21.59;66.89;99500.91;6282720;22;20038;-87
2023/08/22 00:18:14;;;;;;;12.40;8.93;;;;;;;21.70;67.49;99527.88;6258340;22;20002;-88
2023/08/22 00:20:42;;;;;;;12.50;8.35;;;;;;;21.61;67.63;99518.97;6257486;22;20018;-88
2023/08/22 00:23:07;;;;;;;15.15;9.10;;;;;;;21.62;67.63;99534.25;6258846;22;20023;-88
2023/08/22 00:25:33;;;;;;;10.75;8.32;;;;;;;21.52;67.81;99524.50;6282577;22;19999;-88
2023/08/22 00:27:58;;;;;;;10.68;8.70;;;;;;;21.44;68.01;99519.94;6257838;22;20392;-88
2023/08/22 00:30:27;;;;;;;11.43;8.40;;;;;;;21.49;67.88;99517.78;6257354;22;20006;-88
2023/08/22 00:32:54;;;;;;;31.23;18.77;;;;;;;21.50;68.58;99524.03;6283966;22;20426;-88
2023/08/22 00:35:19;;;;;;;23.25;11.88;;;;;;;21.53;68.51;99528.84;6284531;22;19999;-88
2023/08/22 00:37:45;;;;;;;21.05;13.25;;;;;;;21.44;68.47;99525.41;6283829;22;20007;-88
2023/08/22 00:40:11;;;;;;;13.40;9.00;;;;;;;21.39;68.57;99535.41;6260138;22;20038;-88
2023/08/22 00:42:36;;;;;;;15.38;9.15;;;;;;;21.31;68.81;99543.69;6258351;22;19998;-88
2023/08/22 00:45:02;;;;;;;12.27;9.23;;;;;;;21.18;69.27;99542.84;6257019;22;19999;-88
2023/08/22 00:47:27;;;;;;;12.38;8.80;;;;;;;21.12;69.19;99535.97;6257513;22;20050;-88
2023/08/22 00:49:56;;;;;;;13.38;8.43;;;;;;;20.96;69.70;99517.41;6259336;22;20387;-88
2023/08/22 00:52:22;;;;;;;16.35;8.88;;;;;;;20.92;70.17;99532.13;6284881;22;20010;-88
2023/08/22 00:54:50;;;;;;;10.45;8.80;;;;;;;20.86;70.21;99539.72;6282090;22;20019;-88
2023/08/22 00:57:15;;;;;;;11.70;8.43;;;;;;;20.83;70.33;99528.63;6258435;22;20421;-88
2023/08/22 00:59:43;;;;;;;11.23;8.38;;;;;;;20.81;70.14;99539.09;6257803;22;20006;-88
2023/08/22 01:02:09;;;;;;;11.85;8.52;;;;;;;20.80;70.69;99546.53;6258882;22;20022;-88
2023/08/22 01:04:34;;;;;;;10.30;8.38;;;;;;;20.71;70.72;99541.13;6258476;22;20006;-87
2023/08/22 01:07:17;;;;;;;15.73;8.25;;;;;;;20.73;70.08;99548.97;6283547;22;20009;-88
2023/08/22 01:09:50;;;;;;;14.23;9.35;;;;;;;20.78;70.38;99557.78;6284451;22;20059;-89
2023/08/22 01:12:21;;;;;;;11.93;8.68;;;;;;;20.83;70.62;99562.25;6258189;22;20007;-89
2023/08/22 01:14:51;;;;;;;12.73;8.15;;;;;;;20.70;71.02;99544.97;6283309;22;20007;-89
2023/08/22 01:17:17;;;;;;;13.57;8.55;;;;;;;20.73;71.20;99559.91;6258460;22;19999;-87
2023/08/22 01:19:42;;;;;;;17.27;8.75;;;;;;;20.57;72.04;99540.53;6256767;22;20003;-87
2023/08/22 01:22:08;;;;;;;12.43;8.27;;;;;;;20.55;71.42;99537.31;6282846;22;19992;-88
2023/08/22 01:24:33;;;;;;;12.88;8.98;;;;;;;20.57;71.50;99537.78;6283364;22;19995;-88
2023/08/22 01:26:59;;;;;;;15.55;9.40;;;;;;;20.57;72.17;99546.78;6257946;22;19991;-88
2023/08/22 01:29:29;;;;;;;14.60;9.73;;;;;;;20.49;71.80;99558.59;6258919;22;20473;-88
2023/08/22 01:32:00;;;;;;;15.95;10.00;;;;;;;20.38;72.31;99549.97;6259709;22;20003;-88
2023/08/22 01:34:28;;;;;;;14.43;9.93;;;;;;;20.38;72.35;99560.91;6308679;22;20042;-88
2023/08/22 01:36:54;;;;;;;16.63;9.90;;;;;;;20.38;72.46;99558.16;6283229;22;20410;-88
2023/08/22 01:39:20;;;;;;;14.07;9.75;;;;;;;20.40;73.01;99563.31;6257400;22;20003;-88
2023/08/22 01:41:46;;;;;;;11.70;8.90;;;;;;;20.37;72.96;99562.00;6283320;22;19996;-88
2023/08/22 01:44:12;;;;;;;14.65;9.90;;;;;;;20.31;73.26;99546.91;6259011;22;20003;-88
2023/08/22 01:46:37;;;;;;;13.82;9.25;;;;;;;20.43;72.81;99570.84;6258732;22;19999;-88
2023/08/22 01:49:03;;;;;;;13.55;9.20;;;;;;;20.43;72.41;99553.63;6283227;22;20003;-87
2023/08/22 01:51:28;;;;;;;16.15;10.10;;;;;;;20.40;72.82;99566.03;6257952;22;20034;-88
2023/08/22 01:53:54;;;;;;;13.15;9.77;;;;;;;20.38;72.30;99560.09;6283275;22;19999;-88
2023/08/22 01:56:19;;;;;;;21.20;10.63;;;;;;;20.31;72.84;99559.81;6257813;22;19999;-88
2023/08/22 01:58:45;;;;;;;16.95;9.52;;;;;;;20.46;72.30;99578.41;6257878;22;20003;-87
2023/08/22 02:01:13;;;;;;;12.50;9.73;;;;;;;20.36;72.11;99565.09;6257325;22;19979;-87
2023/08/22 02:03:39;;;;;;;14.43;9.57;;;;;;;20.42;71.98;99576.63;6232861;22;20033;-88
2023/08/22 02:06:05;;;;;;;14.15;9.57;;;;;;;20.39;72.83;99567.97;6256910;22;19995;-88
2023/08/22 02:08:30;;;;;;;15.27;10.40;;;;;;;20.42;72.84;99579.38;6256603;22;20026;-88
2023/08/22 02:10:56;;;;;;;19.70;10.75;;;;;;;20.37;72.79;99586.63;6282255;22;20003;-89
2023/08/22 02:13:21;;;;;;;18.58;11.23;;;;;;;20.41;73.33;99592.25;6257995;22;20106;-88
2023/08/22 02:15:47;;;;;;;18.52;11.02;;;;;;;20.31;73.43;99576.22;6258194;22;20002;-88
2023/08/22 02:18:14;;;;;;;23.73;14.50;;;;;;;20.30;73.15;99580.09;6282644;22;20003;-88
2023/08/22 02:20:39;;;;;;;16.27;10.98;;;;;;;20.31;72.90;99568.00;6282421;22;19992;-88
2023/08/22 02:23:05;;;;;;;16.77;11.32;;;;;;;20.52;72.16;99585.28;6257049;22;20078;-88
2023/08/22 02:25:31;;;;;;;15.43;11.10;;;;;;;20.55;71.38;99576.41;6257057;22;20057;-89
2023/08/22 02:27:57;;;;;;;15.93;11.02;;;;;;;20.65;71.02;99579.91;6282647;22;20047;-88
2023/08/22 02:30:22;;;;;;;18.80;11.50;;;;;;;20.78;70.31;99579.69;6256549;22;20010;-88
2023/08/22 02:32:48;;;;;;;18.35;11.23;;;;;;;20.71;70.22;99570.38;6256967;22;20015;-88
2023/08/22 02:35:16;;;;;;;17.95;11.00;;;;;;;20.77;70.75;99597.25;6283318;22;19999;-89
2023/08/22 02:37:43;;;;;;;15.68;10.63;;;;;;;20.66;71.07;99587.81;6282249;22;20007;-88
2023/08/22 02:40:09;;;;;;;14.65;11.25;;;;;;;20.62;71.58;99599.75;6283123;22;20086;-88
2023/08/22 02:42:38;;;;;;;16.52;10.02;;;;;;;20.52;71.45;99582.56;6259120;22;20022;-88
2023/08/22 02:45:04;;;;;;;15.18;10.55;;;;;;;20.49;72.69;99596.09;6258532;22;20026;-88
2023/08/22 02:47:31;;;;;;;17.40;9.82;;;;;;;20.33;72.40;99582.94;6261066;22;20078;-88
2023/08/22 02:49:57;;;;;;;13.90;9.77;;;;;;;20.29;73.25;99592.94;6258847;22;19999;-87
2023/08/22 02:52:22;;;;;;;15.00;10.27;;;;;;;20.34;72.80;99609.19;6284003;22;20014;-88
2023/08/22 02:54:48;;;;;;;14.05;9.82;;;;;;;20.32;72.01;99602.44;6259676;22;20030;-88
2023/08/22 02:57:15;;;;;;;15.18;9.93;;;;;;;20.32;72.84;99599.72;6258749;22;19999;-88
2023/08/22 02:59:41;;;;;;;14.93;9.70;;;;;;;20.34;72.35;99611.91;6260584;22;20090;-88
2023/08/22 03:02:06;;;;;;;14.30;9.80;;;;;;;20.30;72.62;99602.75;6259960;22;20003;-88
2023/08/22 03:04:33;;;;;;;13.60;9.85;;;;;;;20.25;72.36;99611.13;6234128;22;20007;-88
2023/08/22 03:06:59;;;;;;;15.50;10.00;;;;;;;20.14;72.13;99590.75;6258572;22;20007;-89
2023/08/22 03:09:25;;;;;;;16.95;10.07;;;;;;;20.22;72.64;99600.84;6259053;22;20029;-88
2023/08/22 03:11:51;;;;;;;17.40;10.07;;;;;;;20.06;72.69;99603.31;6258465;22;20037;-88
2023/08/22 03:14:16;;;;;;;15.00;9.60;;;;;;;20.02;72.99;99605.09;6283922;22;20003;-88
2023/08/22 03:16:42;;;;;;;11.23;9.73;;;;;;;20.05;72.87;99617.31;6283804;22;20010;-89
2023/08/22 03:19:07;;;;;;;13.43;9.88;;;;;;;19.91;73.16;99606.56;6257812;22;20007;-88
2023/08/22 03:21:33;;;;;;;12.90;9.70;;;;;;;20.00;73.05;99626.47;6258699;22;20400;-88
2023/08/22 03:24:01;;;;;;;12.90;9.75;;;;;;;19.96;72.58;99628.25;6258434;22;19999;-89
2023/08/22 03:26:26;;;;;;;14.27;9.65;;;;;;;19.91;73.55;99642.09;6258080;22;19999;-89
2023/08/22 03:28:52;;;;;;;17.38;10.23;;;;;;;19.77;73.63;99621.22;6259227;22;20022;-89
2023/08/22 03:31:17;;;;;;;16.17;9.85;;;;;;;19.67;73.19;99613.34;6258501;22;20014;-90
2023/08/22 03:33:43;;;;;;;16.42;9.98;;;;;;;19.75;73.66;99625.41;6258219;22;19994;-90
2023/08/22 03:36:08;;;;;;;13.40;10.05;;;;;;;19.68;73.93;99630.53;6258218;22;20007;-90
2023/08/22 03:38:34;;;;;;;13.40;9.98;;;;;;;19.72;73.70;99628.78;6284532;22;20002;-90
2023/08/22 03:40:59;;;;;;;15.25;9.55;;;;;;;19.56;75.10;99625.72;6258263;22;19995;-90
2023/08/22 03:43:25;;;;;;;16.67;10.55;;;;;;;19.52;75.03;99638.41;6260406;22;20530;-89
2023/08/22 03:45:50;;;;;;;14.43;10.68;;;;;;;19.43;75.31;99632.16;6258823;22;20010;-89
2023/08/22 03:48:16;;;;;;;17.20;10.90;;;;;;;19.51;75.13;99642.28;6259142;22;19996;-90
2023/08/22 03:50:42;;;;;;;18.25;10.63;;;;;;;19.56;74.46;99639.38;6259420;22;20011;-89
2023/08/22 03:53:11;;;;;;;17.30;10.75;;;;;;;19.56;74.26;99640.16;6284486;22;19999;-89
2023/08/22 03:55:40;;;;;;;19.67;10.45;;;;;;;19.65;74.67;99640.19;6257929;22;20030;-90
2023/08/22 03:58:06;;;;;;;14.55;10.35;;;;;;;19.67;74.57;99634.38;6283827;22;20000;-89
2023/08/22 04:00:31;;;;;;;16.80;10.57;;;;;;;19.69;74.23;99630.19;6284218;22;20006;-89
2023/08/22 04:02:57;;;;;;;17.13;10.45;;;;;;;19.71;73.74;99629.91;6259446;22;20422;-89
2023/08/22 04:05:23;;;;;;;13.07;10.07;;;;;;;19.83;73.76;99637.47;6284434;22;20003;-89
2023/08/22 04:07:49;;;;;;;13.98;9.65;;;;;;;19.75;73.05;99617.22;6262274;22;20434;-92
2023/08/22 04:10:15;;;;;;;25.70;12.25;;;;;;;19.81;73.69;99632.31;6260298;22;20552;-90
2023/08/22 04:12:41;;;;;;;17.15;10.20;;;;;;;19.99;73.51;99642.09;6259380;22;20014;-89
2023/08/22 04:15:08;;;;;;;15.40;10.20;;;;;;;19.93;73.06;99637.91;6259273;22;20042;-89
2023/08/22 04:17:34;;;;;;;14.13;10.30;;;;;;;19.96;73.32;99631.81;6259411;22;20056;-90
2023/08/22 04:19:59;;;;;;;12.38;9.45;;;;;;;20.03;72.79;99634.03;6259468;22;19999;-90
2023/08/22 04:22:25;;;;;;;16.02;9.90;;;;;;;20.10;72.42;99639.00;6256780;22;20426;-90
2023/08/22 04:24:51;;;;;;;17.20;9.30;;;;;;;20.03;72.70;99646.91;6256877;22;20003;-90
2023/08/22 04:27:19;;;;;;;16.50;8.80;;;;;;;19.95;72.67;99640.34;6282679;22;20032;-91
2023/08/22 04:29:45;;;;;;;14.63;10.38;;;;;;;20.06;72.64;99647.06;6260026;22;19999;-89
2023/08/22 04:32:10;;;;;;;15.85;10.10;;;;;;;20.05;72.26;99644.66;6258573;22;20007;-89
2023/08/22 04:34:35;;;;;;;12.38;9.68;;;;;;;20.06;72.03;99646.25;6257626;22;19999;-89
2023/08/22 04:37:01;;;;;;;15.80;12.27;;;;;;;19.92;72.64;99633.59;6282851;22;19996;-89
2023/08/22 04:39:26;;;;;;;14.15;9.57;;;;;;;19.93;72.39;99635.19;6256897;22;19990;-90
2023/08/22 04:41:52;;;;;;;16.98;11.10;;;;;;;20.08;72.12;99644.00;6260640;22;20007;-90
2023/08/22 04:44:18;;;;;;;14.07;9.05;;;;;;;20.15;71.25;99647.03;6258492;22;20003;-89
2023/08/22 04:46:46;;;;;;;14.40;9.57;;;;;;;20.30;72.04;99664.88;6258801;22;20018;-88
2023/08/22 04:49:29;;;;;;;14.68;9.52;;;;;;;20.26;71.13;99645.56;6258357;22;20006;-88
2023/08/22 04:51:54;;;;;;;15.15;9.55;;;;;;;20.33;70.01;99648.59;6257103;22;20099;-89
2023/08/22 04:54:20;;;;;;;17.58;9.55;;;;;;;20.50;70.04;99663.31;6258534;22;20446;-90
2023/08/22 04:56:49;;;;;;;13.60;9.40;;;;;;;20.60;69.87;99665.72;6258358;22;19995;-92
2023/08/22 04:59:21;;;;;;;17.73;9.65;;;;;;;20.56;69.50;99651.06;6259891;22;20065;-89
2023/08/22 05:01:50;;;;;;;14.15;9.30;;;;;;;20.67;69.53;99654.28;6283894;22;19995;-89
2023/08/22 05:04:16;;;;;;;19.83;10.18;;;;;;;20.82;68.91;99650.19;6261806;22;20509;-89
2023/08/22 05:06:44;;;;;;;18.27;10.90;;;;;;;20.93;68.24;99662.34;6257966;22;20025;-89
2023/08/22 05:09:12;;;;;;;16.90;9.57;;;;;;;20.94;68.13;99650.28;6283165;22;20004;-89
2023/08/22 05:11:39;;;;;;;15.68;9.63;;;;;;;21.10;67.58;99654.03;6258357;22;20027;-90
2023/08/22 05:14:05;;;;;;;21.30;10.45;;;;;;;21.10;67.13;99637.59;6283980;22;20003;-89
2023/08/22 05:16:33;;;;;;;11.80;9.25;;;;;;;21.24;66.26;99661.22;6260090;22;19999;-89
2023/08/22 05:19:08;;;;;;;15.38;9.75;;;;;;;21.33;66.75;99657.28;6242010;22;20434;-89
2023/08/22 05:21:36;;;;;;;17.80;9.98;;;;;;;21.41;66.72;99655.59;6257693;22;19995;-91
2023/08/22 05:24:02;;;;;;;19.98;9.90;;;;;;;21.51;64.85;99659.91;6258883;22;20068;-91
2023/08/22 05:26:28;;;;;;;19.15;12.98;;;;;;;21.56;64.22;99656.94;6258758;22;20085;-88
2023/08/22 05:28:53;;;;;;;23.80;9.98;;;;;;;21.56;64.99;99644.06;6259688;22;20003;-89
2023/08/22 05:31:23;;;;;;;12.60;9.18;;;;;;;21.68;64.61;99650.75;6259212;22;20007;-90
2023/08/22 05:34:31;;;;;;;13.25;8.63;;;;;;;21.87;64.03;99667.50;6258332;22;20076;-90
2023/08/22 05:36:56;;;;;;;14.15;9.05;;;;;;;21.88;64.38;99660.88;6307611;22;20007;-88
2023/08/22 05:39:22;;;;;;;18.50;8.52;;;;;;;21.95;65.12;99650.16;6258472;22;20446;-89
2023/08/22 05:41:47;;;;;;;15.07;9.18;;;;;;;22.09;64.57;99669.06;6282654;22;19999;-89
2023/08/22 05:44:15;;;;;;;14.52;8.57;;;;;;;22.12;63.78;99656.59;6284129;22;20295;-89
2023/08/22 05:46:40;;;;;;;12.55;8.25;;;;;;;22.31;63.24;99656.91;6258734;22;19995;-89
2023/08/22 05:49:06;;;;;;;16.13;9.35;;;;;;;22.53;62.03;99663.09;6258566;22;20000;-89
2023/08/22 05:51:34;;;;;;;18.65;9.15;;;;;;;22.61;62.20;99656.72;6282891;22;20402;-89
2023/08/22 05:54:03;;;;;;;18.58;9.65;;;;;;;22.65;62.12;99654.88;6285162;22;20000;-90
2023/08/22 05:56:29;;;;;;;15.23;9.77;;;;;;;22.68;62.08;99645.97;6260199;22;20098;-88
2023/08/22 05:58:57;;;;;;;15.20;9.30;;;;;;;22.82;61.32;99656.59;6257032;22;20422;-89
2023/08/22 06:01:30;;;;;;;17.77;9.15;;;;;;;22.78;61.28;99644.69;6261720;22;19999;-90
2023/08/22 06:03:56;;;;;;;14.25;9.13;;;;;;;22.93;60.75;99657.75;6258914;22;19999;-90
2023/08/22 06:06:21;;;;;;;12.85;9.02;;;;;;;23.08;60.22;99650.78;6260517;22;20449;-88
2023/08/22 06:08:51;;;;;;;16.45;9.38;;;;;;;23.00;59.75;99629.69;6262244;22;20002;-89
2023/08/22 06:11:19;;;;;;;12.57;9.02;;;;;;;23.45;59.02;99667.19;6265184;22;20054;-90
2023/08/22 06:13:45;;;;;;;17.15;9.00;;;;;;;23.35;58.80;99635.50;6262130;22;19995;-90
2023/08/22 06:16:11;;;;;;;14.10;9.50;;;;;;;23.65;59.16;99657.16;6262417;22;20048;-90
2023/08/22 06:18:36;;;;;;;16.48;9.35;;;;;;;23.82;58.58;99663.53;6260544;22;20034;-90
2023/08/22 06:21:02;;;;;;;14.40;10.02;;;;;;;23.90;58.06;99638.63;6284439;22;20057;-87
2023/08/22 06:23:30;;;;;;;50.25;13.40;;;;;;;24.01;57.99;99655.44;6261188;22;20442;-90
2023/08/22 06:25:56;;;;;;;15.88;9.20;;;;;;;24.11;58.02;99652.16;6260193;22;20034;-88
2023/08/22 06:28:21;;;;;;;15.95;9.30;;;;;;;24.22;57.57;99646.94;6260429;22;20072;-89
2023/08/22 06:30:54;;;;;;;15.05;9.35;;;;;;;24.32;57.08;99645.59;6260917;22;20064;-88
2023/08/22 06:33:29;;;;;;;16.27;9.77;;;;;;;24.38;56.57;99644.19;6263064;22;20053;-90
2023/08/22 06:36:05;;;;;;;12.07;9.13;;;;;;;24.50;56.20;99638.63;6263752;22;19999;-90
2023/08/22 06:38:31;;;;;;;15.48;8.85;;;;;;;24.77;56.23;99647.13;6286872;22;19995;-90
2023/08/22 06:41:04;;;;;;;17.25;9.23;;;;;;;24.92;55.81;99651.03;6259089;22;20002;-91
2023/08/22 06:43:35;;;;;;;16.23;8.93;;;;;;;25.08;55.47;99653.75;6257546;22;20404;-89
2023/08/22 06:46:02;;;;;;;12.45;8.70;;;;;;;25.21;55.04;99649.72;6260565;22;20003;-88
2023/08/22 06:48:30;;;;;;;14.13;8.60;;;;;;;25.41;54.98;99656.06;6259179;22;19999;-91
2023/08/22 06:51:04;;;;;;;16.13;9.82;;;;;;;25.58;54.86;99646.56;6261672;22;20392;-88
2023/08/22 06:53:29;;;;;;;12.18;8.38;;;;;;;25.70;54.82;99642.88;6262193;22;20489;-89
2023/08/22 06:55:58;;;;;;;16.65;8.90;;;;;;;25.79;53.93;99624.94;6262440;22;20030;-89
2023/08/22 06:58:26;;;;;;;19.13;9.52;;;;;;;25.91;54.24;99639.75;6285561;22;20106;-90
2023/08/22 07:00:52;;;;;;;18.23;8.65;;;;;;;26.15;53.81;99647.72;6262604;22;20002;-89
2023/08/22 07:03:23;;;;;;;18.02;8.35;;;;;;;26.28;53.37;99633.72;6260869;22;20003;-89
2023/08/22 07:09:43;;;;;;;15.18;8.70;;;;;;;26.51;52.79;99644.75;6189714;23;20007;-91
2023/08/22 07:12:21;;;;;;;13.77;9.18;;;;;;;26.57;52.63;99638.59;6139182;23;20468;-90
2023/08/22 07:14:46;;;;;;;17.90;8.77;;;;;;;26.79;52.95;99652.72;6256021;22;20011;-90
2023/08/22 07:17:26;;;;;;;;;;;;;;;;;;;;;
2023/08/22 07:19:55;;;;;;;19.60;9.25;;;;;;;26.94;52.16;99628.88;6289439;22;20027;-89
2023/08/22 07:22:25;;;;;;;14.18;9.45;;;;;;;27.08;51.47;99647.63;6261239;22;20033;-89
2023/08/22 07:24:51;;;;;;;11.23;8.38;;;;;;;27.03;52.24;99621.09;6264496;22;19995;-91
2023/08/22 07:27:17;;;;;;;12.93;8.35;;;;;;;27.40;51.18;99640.59;6260813;22;20007;-91
2023/08/22 07:29:43;;;;;;;12.77;8.02;;;;;;;27.45;50.86;99633.94;6261892;22;20003;-91
2023/08/22 07:32:08;;;;;;;10.85;7.93;;;;;;;27.60;50.47;99621.06;6260097;22;20011;-93
2023/08/22 07:34:34;;;;;;;17.15;8.05;;;;;;;27.78;49.78;99638.66;6262846;22;20014;-90
2023/08/22 07:37:00;;;;;;;13.80;8.85;;;;;;;27.83;49.99;99643.09;6264351;22;19996;-91
2023/08/22 07:39:27;;;;;;;14.45;7.78;;;;;;;27.95;49.66;99626.25;6290232;22;19999;-90
2023/08/22 07:41:53;;;;;;;14.10;8.45;;;;;;;28.11;49.00;99642.59;6288045;22;20042;-88
2023/08/22 07:44:23;;;;;;;15.75;8.57;;;;;;;28.25;49.27;99638.38;6260788;22;20007;-89
2023/08/22 07:46:54;;;;;;;11.50;8.52;;;;;;;28.24;48.42;99637.56;6286963;22;20025;-89
2023/08/22 07:49:23;;;;;;;14.98;7.72;;;;;;;28.32;47.63;99633.69;6236579;22;20000;-92
2023/08/22 07:51:52;;;;;;;12.20;7.60;;;;;;;28.45;48.02;99619.56;6262708;22;20010;-90
2023/08/22 07:54:20;;;;;;;13.05;7.88;;;;;;;28.67;47.80;99631.63;6285709;22;20019;-91
2023/08/22 07:56:52;;;;;;;19.13;7.22;;;;;;;28.83;46.66;99643.22;6260395;22;20418;-89
2023/08/22 07:59:19;;;;;;;11.40;7.13;;;;;;;28.84;46.65;99613.53;6266668;22;20003;-96
2023/08/22 08:01:46;;;;;;;16.42;7.43;;;;;;;28.90;46.58;99615.53;6274546;22;20015;-96
2023/08/22 08:04:20;;;;;;;10.25;6.70;;;;;;;29.13;45.19;99636.69;6272089;22;20017;-95
2023/08/22 08:06:50;;;;;;;10.68;7.68;;;;;;;29.13;45.29;99609.75;6299281;22;20003;-96
2023/08/22 08:09:22;;;;;;;9.98;6.60;;;;;;;29.40;45.60;99640.00;6276157;22;20014;-95
2023/08/22 08:15:31;;;;;;;9.23;6.35;;;;;;;29.49;44.24;99611.91;6246320;22;20010;-93
2023/08/22 08:18:01;;;;;;;15.68;10.48;;;;;;;29.64;43.72;99613.53;6294420;22;20018;-96
2023/08/22 08:20:29;;;;;;;9.68;6.85;;;;;;;29.75;42.80;99605.28;6270213;22;20014;-95
2023/08/22 08:22:58;;;;;;;7.28;5.28;;;;;;;29.89;41.76;99610.84;6275287;22;20022;-94
2023/08/22 08:25:49;;;;;;;7.43;5.20;;;;;;;30.06;40.49;99625.97;6275355;22;20007;-96
2023/08/22 08:28:41;;;;;;;;;;;;;;;30.12;40.38;99623.59;6296050;22;20003;-95
2023/08/22 08:31:08;;;;;;;8.85;5.72;;;;;;;30.01;40.79;99613.25;6245819;22;19911;-95
2023/08/22 08:34:07;;;;;;;;;;;;;;;;;;;;;
2023/08/22 08:37:21;;;;;;;;;;;;;;;;;;;;;
2023/08/22 08:40:21;;;;;;;10.75;7.55;;;;;;;30.29;40.91;99614.50;6296380;22;20023;-96
2023/08/22 08:43:24;;;;;;;7.95;5.43;;;;;;;30.25;39.98;99607.31;6310777;22;20009;-96
2023/08/22 08:45:51;;;;;;;12.00;5.93;;;;;;;30.35;40.86;99610.13;6312503;22;20066;-96
2023/08/22 08:48:35;;;;;;;9.00;5.65;;;;;;;30.32;40.96;99605.38;6360710;22;20035;-96
2023/08/22 08:51:16;;;;;;;6.10;5.28;;;;;;;30.40;40.87;99603.38;6305609;22;20040;-96
2023/08/22 08:53:46;;;;;;;10.20;5.40;;;;;;;30.62;41.40;99621.63;6310856;22;19994;-95
2023/08/22 08:56:17;;;;;;;9.83;5.60;;;;;;;30.62;40.82;99596.63;6358279;22;20002;-96
2023/08/22 08:58:43;;;;;;;;;;;;;;;30.73;41.26;99623.59;6357978;22;20006;-96
2023/08/22 09:01:23;;;;;;;9.27;7.72;;;;;;;30.62;41.10;99591.06;6331893;22;19908;-96
2023/08/22 09:03:53;;;;;;;10.50;5.67;;;;;;;30.70;40.36;99588.28;6363038;22;20010;-96
2023/08/22 09:06:25;;;;;;;7.65;5.38;;;;;;;30.82;39.88;99610.88;6295662;22;20007;-96
2023/08/22 09:09:08;;;;;;;8.10;6.43;;;;;;;30.72;39.80;99592.25;4806555;27;8961062;-96
2023/08/22 09:11:43;;;;;;;8.30;5.15;;;;;;;30.86;38.74;99608.09;5076088;28;20032;-96
2023/08/22 09:17:08;;;;;;;8.05;5.57;;;;;;;30.73;38.99;99584.69;5684158;22;20122;-96
2023/08/22 09:20:35;;;;;;;;;;;;;;;;;;;;;
2023/08/22 09:23:49;;;;;;;8.88;5.55;;;;;;;31.01;39.53;99592.19;4992950;28;20058;-96
2023/08/22 09:26:51;;;;;;;8.60;6.32;;;;;;;30.99;39.00;99598.16;4965244;28;20023;-96
2023/08/22 09:32:24;;;;;;;9.70;5.32;;;;;;;31.14;38.26;99582.22;4971396;28;20122;-96
2023/08/22 09:38:20;;;;;;;7.63;5.72;;;;;;;31.38;37.52;99571.41;5094674;28;20032;-96
2023/08/22 09:40:54;;;;;;;10.00;5.35;;;;;;;31.46;37.53;99572.16;5072537;28;20075;-96
2023/08/22 09:44:01;;;;;;;;;;;;;;;;;;;;;
2023/08/22 09:46:31;;;;;;;7.30;5.30;;;;;;;31.65;37.76;99562.50;4952997;29;20095;-96
2023/08/22 09:48:57;;;;;;;11.95;5.13;;;;;;;31.72;36.34;99562.47;4950598;28;20044;-95
2023/08/22 09:51:22;;;;;;;7.32;4.50;;;;;;;31.69;35.81;99564.09;5174894;22;20133;-95
2023/08/22 09:59:14;;;;;;;8.90;5.32;;;;;;;31.85;36.00;99544.06;5047368;28;20052;-96
2023/08/22 10:16:48;;;;;;;6.72;4.35;;;;;;;32.38;32.75;99547.66;1243681;22;20300;-93
2023/08/22 10:30:35;;;;;;;5.95;4.68;;;;;;;32.66;33.26;99554.97;5661400;22;20061;-96
2023/08/22 10:40:24;;;;;;;7.68;4.55;;;;;;;32.94;31.69;99547.50;4921589;29;20499;-90
2023/08/22 10:43:08;;;;;;;8.32;4.18;;;;;;;33.00;30.97;99543.81;4921708;29;20054;-91
2023/08/22 10:45:50;;;;;;;7.40;4.05;;;;;;;32.70;30.89;99513.09;4976369;28;20049;-92
2023/08/22 10:48:29;;;;;;;5.55;4.05;;;;;;;32.88;30.78;99516.47;4989049;28;20085;-93
2023/08/22 10:51:07;;;;;;;7.68;5.00;;;;;;;33.04;30.68;99535.41;4963438;28;20045;-95
2023/08/22 10:54:04;;;;;;;6.10;3.80;;;;;;;33.02;30.46;99519.09;4985359;28;20576;-95
2023/08/22 11:00:22;;;;;;;5.70;4.32;;;;;;;33.31;31.00;99520.72;4931343;29;20039;-96
2023/08/22 11:09:03;;;;;;;4.40;3.83;;;;;;;33.14;30.04;99501.03;5122090;22;20078;-96
2023/08/22 11:11:57;;;;;;;6.03;4.25;;;;;;;33.15;30.75;99485.06;4999291;28;20037;-96
2023/08/22 11:14:59;;;;;;;6.75;4.00;;;;;;;33.28;30.33;99491.66;5037843;28;20087;-96
2023/08/22 11:35:06;;;;;;;6.50;4.13;;;;;;;33.96;30.95;99499.00;5011599;28;20049;-95
2023/08/22 11:43:04;;;;;;;7.07;4.60;;;;;;;34.14;30.48;99487.56;5428737;22;20038;-92
2023/08/22 11:45:33;;;;;;;7.40;4.60;;;;;;;34.14;29.59;99472.78;4996197;28;20026;-91
2023/08/22 11:47:59;;;;;;;7.18;4.70;;;;;;;34.24;29.78;99476.59;4978752;28;20087;-90
2023/08/22 11:50:34;;;;;;;5.78;3.92;;;;;;;34.29;28.96;99468.53;4988161;28;20029;-90
2023/08/22 11:53:16;;;;;;;10.68;5.65;;;;;;;34.54;29.22;99490.41;4990234;28;20029;-91
2023/08/22 11:55:55;;;;;;;;;;;;;;;;;;;;;
2023/08/22 11:58:21;;;;;;;5.88;4.18;;;;;;;34.66;28.66;99469.44;5006959;28;20101;-91
2023/08/22 12:00:46;;;;;;;5.88;4.38;;;;;;;34.69;29.24;99457.38;4983578;28;20491;-89
2023/08/22 12:03:18;;;;;;;5.72;4.40;;;;;;;34.77;28.93;99444.03;4983918;28;20025;-90
2023/08/22 12:05:53;;;;;;;5.97;4.20;;;;;;;35.00;28.86;99471.91;4988898;28;20022;-89
2023/08/22 12:08:20;;;;;;;6.93;4.30;;;;;;;34.93;27.95;99448.91;4956334;28;20034;-89
2023/08/22 12:10:58;;;;;;;7.93;4.72;;;;;;;35.00;28.05;99448.72;4988738;28;20660;-89
2023/08/22 12:13:50;;;;;;;8.07;4.53;;;;;;;35.05;28.84;99450.22;5004507;28;20025;-91
2023/08/22 12:16:18;;;;;;;7.97;4.65;;;;;;;35.10;28.26;99442.09;5007958;28;20026;-93
2023/08/22 12:18:44;;;;;;;8.68;4.68;;;;;;;35.22;28.86;99447.06;4995874;28;20036;-88
2023/08/22 12:21:14;;;;;;;7.10;4.80;;;;;;;35.11;28.37;99446.47;4989974;28;20033;-91
2023/08/22 12:23:40;;;;;;;7.57;4.93;;;;;;;35.15;28.12;99457.63;5003121;28;20049;-92
2023/08/22 12:26:05;;;;;;;7.13;4.47;;;;;;;35.15;28.42;99464.00;4987666;28;20560;-92
2023/08/22 12:28:34;;;;;;;6.90;4.82;;;;;;;34.84;28.28;99451.47;4990927;28;20025;-89
2023/08/22 12:31:02;;;;;;;6.60;4.70;;;;;;;34.79;28.50;99467.56;4993700;28;20013;-91
2023/08/22 12:33:36;;;;;;;5.97;4.68;;;;;;;34.68;28.61;99441.00;5009702;28;20032;-90
2023/08/22 12:36:01;;;;;;;6.47;4.65;;;;;;;34.90;28.81;99435.75;4986664;28;20047;-92
2023/08/22 12:38:27;;;;;;;9.00;5.22;;;;;;;35.08;28.42;99427.75;4981973;28;20033;-93
2023/08/22 12:41:16;;;;;;;5.47;4.43;;;;;;;35.38;29.31;99453.88;4985099;28;20044;-91
2023/08/22 12:43:44;;;;;;;9.55;5.30;;;;;;;35.08;29.41;99446.56;4976686;28;20054;-91
2023/08/22 12:46:09;;;;;;;7.28;4.90;;;;;;;34.99;28.81;99433.19;4968208;28;20002;-90
2023/08/22 12:48:36;;;;;;;7.68;4.93;;;;;;;35.06;29.08;99433.00;4969945;28;20091;-91
2023/08/22 12:51:02;;;;;;;9.75;4.60;;;;;;;35.18;28.97;99434.38;4966346;28;20050;-92
2023/08/22 12:53:34;;;;;;;8.57;4.65;;;;;;;35.10;29.30;99442.09;4968818;28;20029;-91
2023/08/22 12:55:59;;;;;;;7.80;4.45;;;;;;;34.91;29.55;99443.72;4968470;28;20104;-90
2023/08/22 12:58:27;;;;;;;6.25;4.63;;;;;;;34.78;30.16;99446.41;4970769;28;20076;-90
2023/08/22 13:00:55;;;;;;;6.72;5.15;;;;;;;34.71;30.13;99451.34;4972061;28;20030;-88
2023/08/22 13:03:21;;;;;;;7.20;4.93;;;;;;;34.38;30.56;99443.56;4965007;28;20038;-89
2023/08/22 13:05:50;;;;;;;5.55;4.63;;;;;;;34.36;30.95;99428.44;4968295;28;20061;-88
2023/08/22 13:08:22;;;;;;;6.57;4.88;;;;;;;34.21;31.16;99427.94;4971397;28;20029;-89
2023/08/22 13:14:34;;;;;;;5.93;4.75;;;;;;;33.95;31.01;99437.97;4960157;29;20059;-89
2023/08/22 13:17:04;;;;;;;6.82;4.95;;;;;;;34.19;30.54;99433.19;4915445;29;20058;-90
2023/08/22 13:19:32;;;;;;;6.78;4.80;;;;;;;34.27;30.23;99440.22;4971933;28;20057;-88